Time;durP1;ratioP1;P1;durP2;ratioP2;P2;SDS_P1;SDS_P2;PMS_P1;PMS_P2;Temp;Humidity;BMP_temperature;BMP_pressure;BME280_temperature;BME280_humidity;BME280_pressure;Samples;Min_cycle;Max_cycle;Signal;HPM_P1;HPM_P2
2022/09/26 00:00:25;;;;;;;5.97;5.57;;;;;;;;;;5096165;28;20416;-77
2022/09/26 00:02:50;;;;;;;7.20;5.97;;;;;;;;;;5096111;28;20413;-77
2022/09/26 00:05:16;;;;;;;7.10;6.37;;;;;;;;;;5094763;28;20405;-77
2022/09/26 00:07:45;;;;;;;6.77;6.37;;;;;;;;;;5095988;28;20470;-77
2022/09/26 00:10:11;;;;;;;6.00;5.70;;;;;;;;;;5095990;28;20401;-77
2022/09/26 00:12:36;;;;;;;5.37;5.17;;;;;;;;;;5095929;28;20413;-77
2022/09/26 00:15:03;;;;;;;7.20;6.70;;;;;;;;;;5094524;28;20462;-77
2022/09/26 00:17:29;;;;;;;7.07;6.50;;;;;;;;;;5095781;28;20526;-77
2022/09/26 00:19:55;;;;;;;6.10;5.60;;;;;;;;;;5095799;28;20864;-77
2022/09/26 00:22:21;;;;;;;6.07;5.70;;;;;;;;;;5095774;28;20410;-77
2022/09/26 00:24:47;;;;;;;6.47;6.07;;;;;;;;;;5095679;28;20397;-77
2022/09/26 00:27:13;;;;;;;5.77;5.57;;;;;;;;;;5094376;28;20413;-77
2022/09/26 00:29:38;;;;;;;6.23;5.70;;;;;;;;;;5094340;28;20421;-77
2022/09/26 00:32:05;;;;;;;6.57;6.07;;;;;;;;;;5094473;28;20413;-77
2022/09/26 00:34:31;;;;;;;7.60;6.80;;;;;;;;;;5094243;28;20427;-78
2022/09/26 00:36:57;;;;;;;5.70;5.30;;;;;;;;;;5094084;28;20482;-77
2022/09/26 00:39:23;;;;;;;6.10;5.80;;;;;;;;;;5094705;28;20425;-77
2022/09/26 00:41:49;;;;;;;6.80;6.10;;;;;;;;;;5095330;28;20456;-77
2022/09/26 00:44:34;;;;;;;6.07;5.77;;;;;;;;;;5095303;28;20907;-77
2022/09/26 00:47:00;;;;;;;6.27;5.67;;;;;;;;;;5095191;28;20437;-77
2022/09/26 00:49:34;;;;;;;6.00;5.40;;;;;;;;;;5095519;28;20401;-77
2022/09/26 00:52:06;;;;;;;6.03;5.60;;;;;;;;;;5095217;28;20431;-77
2022/09/26 00:54:34;;;;;;;6.00;5.70;;;;;;;;;;5093619;28;20551;-77
2022/09/26 00:57:05;;;;;;;9.20;6.80;;;;;;;;;;5094904;28;20491;-77
2022/09/26 00:59:33;;;;;;;7.00;6.40;;;;;;;;;;5095017;28;20417;-77
2022/09/26 01:01:59;;;;;;;6.47;5.97;;;;;;;;;;5094957;28;20492;-77
2022/09/26 01:04:27;;;;;;;7.90;5.70;;;;;;;;;;5094891;28;20412;-77
2022/09/26 01:06:55;;;;;;;13.97;5.90;;;;;;;;;;5093597;28;20755;-77
2022/09/26 01:09:21;;;;;;;6.17;5.67;;;;;;;;;;5094842;28;20409;-77
2022/09/26 01:11:47;;;;;;;7.97;6.33;;;;;;;;;;5094904;28;20492;-77
2022/09/26 01:14:13;;;;;;;9.10;6.50;;;;;;;;;;5095259;28;20486;-77
2022/09/26 01:16:39;;;;;;;6.70;6.30;;;;;;;;;;5095274;28;20765;-77
2022/09/26 01:19:21;;;;;;;7.03;6.37;;;;;;;;;;5095106;28;20488;-77
2022/09/26 01:22:07;;;;;;;6.47;6.07;;;;;;;;;;5095169;28;20888;-77
2022/09/26 01:24:38;;;;;;;8.23;6.67;;;;;;;;;;5095462;28;20870;-78
2022/09/26 01:27:20;;;;;;;6.90;6.50;;;;;;;;;;5095114;28;20470;-77
2022/09/26 01:30:01;;;;;;;6.10;5.60;;;;;;;;;;5095284;28;20411;-77
2022/09/26 01:32:49;;;;;;;8.00;5.83;;;;;;;;;;5093752;28;20439;-77
2022/09/26 01:35:21;;;;;;;6.83;6.23;;;;;;;;;;5095029;28;20412;-77
2022/09/26 01:38:06;;;;;;;6.07;5.57;;;;;;;;;;5094871;28;20504;-77
2022/09/26 01:40:41;;;;;;;6.90;6.30;;;;;;;;;;5094194;28;20412;-77
2022/09/26 01:43:13;;;;;;;6.37;5.97;;;;;;;;;;5093236;28;20427;-77
2022/09/26 01:45:50;;;;;;;6.10;5.50;;;;;;;;;;5094529;28;20814;-77
2022/09/26 01:48:18;;;;;;;7.57;6.20;;;;;;;;;;5094156;28;20492;-76
2022/09/26 01:50:57;;;;;;;6.30;5.90;;;;;;;;;;5093140;28;20420;-77
2022/09/26 01:53:46;;;;;;;5.90;5.40;;;;;;;;;;5094061;28;20455;-77
2022/09/26 01:56:14;;;;;;;7.57;6.97;;;;;;;;;;5085972;28;20477;-77
2022/09/26 01:58:44;;;;;;;8.07;5.87;;;;;;;;;;5092555;28;20894;-77
2022/09/26 02:01:13;;;;;;;7.47;6.77;;;;;;;;;;5093922;28;20514;-78
2022/09/26 02:03:42;;;;;;;7.13;6.73;;;;;;;;;;5093908;28;20463;-77
2022/09/26 02:06:15;;;;;;;7.30;6.77;;;;;;;;;;5093906;28;20891;-78
2022/09/26 02:08:45;;;;;;;7.67;7.07;;;;;;;;;;5094627;28;20484;-77
2022/09/26 02:11:17;;;;;;;8.93;6.83;;;;;;;;;;5094772;28;20517;-77
2022/09/26 02:13:50;;;;;;;7.70;7.20;;;;;;;;;;5095011;28;20466;-79
2022/09/26 02:16:26;;;;;;;7.77;7.17;;;;;;;;;;5095209;28;20413;-78
2022/09/26 02:19:05;;;;;;;6.87;6.37;;;;;;;;;;5093846;28;20472;-78
2022/09/26 02:21:31;;;;;;;7.47;6.93;;;;;;;;;;5095068;28;20401;-78
2022/09/26 02:23:57;;;;;;;8.00;7.30;;;;;;;;;;5094715;28;20417;-78
2022/09/26 02:26:23;;;;;;;7.40;6.80;;;;;;;;;;5094607;28;20460;-78
2022/09/26 02:28:49;;;;;;;7.40;7.00;;;;;;;;;;5094053;28;20838;-78
2022/09/26 02:31:20;;;;;;;8.23;7.47;;;;;;;;;;5094091;28;20417;-78
2022/09/26 02:33:50;;;;;;;11.73;6.93;;;;;;;;;;5093919;28;20765;-78
2022/09/26 02:36:18;;;;;;;8.83;8.10;;;;;;;;;;5093903;28;20440;-78
2022/09/26 02:38:43;;;;;;;9.53;7.50;;;;;;;;;;5093621;28;20489;-78
2022/09/26 02:41:28;;;;;;;7.30;6.60;;;;;;;;;;5092180;28;20429;-78
2022/09/26 02:44:10;;;;;;;7.27;6.67;;;;;;;;;;5093683;28;20405;-78
2022/09/26 02:46:42;;;;;;;6.87;6.30;;;;;;;;;;5093510;28;20816;-78
2022/09/26 02:49:08;;;;;;;7.20;6.50;;;;;;;;;;5093449;28;20739;-78
2022/09/26 02:51:52;;;;;;;9.10;7.70;;;;;;;;;;5092059;28;20412;-77
2022/09/26 02:54:45;;;;;;;12.13;8.20;;;;;;;;;;5093160;28;20437;-77
2022/09/26 02:57:26;;;;;;;10.33;8.97;;;;;;;;;;5090685;28;20830;-79
2022/09/26 03:00:08;;;;;;;13.53;8.67;;;;;;;;;;5093286;28;20412;-80
2022/09/26 03:02:37;;;;;;;9.50;8.60;;;;;;;;;;5094860;28;20408;-78
2022/09/26 03:05:08;;;;;;;9.27;8.30;;;;;;;;;;5097398;28;20409;-81
2022/09/26 03:07:39;;;;;;;10.00;9.10;;;;;;;;;;5097179;28;20397;-79
2022/09/26 03:10:06;;;;;;;8.87;8.07;;;;;;;;;;5095854;28;20428;-78
2022/09/26 03:12:33;;;;;;;7.47;6.63;;;;;;;;;;5097112;28;20405;-80
2022/09/26 03:15:02;;;;;;;9.00;8.03;;;;;;;;;;5097025;28;20972;-80
2022/09/26 03:17:30;;;;;;;7.57;6.80;;;;;;;;;;5095660;28;20939;-78
2022/09/26 03:20:12;;;;;;;7.40;6.67;;;;;;;;;;5096980;28;20765;-78
2022/09/26 03:22:38;;;;;;;7.10;6.50;;;;;;;;;;5096962;28;20488;-79
2022/09/26 03:25:05;;;;;;;7.87;7.03;;;;;;;;;;5095499;28;20845;-79
2022/09/26 03:27:33;;;;;;;8.23;7.53;;;;;;;;;;5096887;28;20401;-80
2022/09/26 03:29:59;;;;;;;8.37;7.77;;;;;;;;;;5096795;28;20413;-78
2022/09/26 03:32:25;;;;;;;8.53;7.90;;;;;;;;;;5095444;28;20423;-78
2022/09/26 03:34:51;;;;;;;9.03;8.20;;;;;;;;;;5096642;28;20496;-78
2022/09/26 03:37:17;;;;;;;9.47;8.20;;;;;;;;;;5096571;28;21026;-77
2022/09/26 03:39:44;;;;;;;9.37;8.10;;;;;;;;;;5096643;28;20409;-79
2022/09/26 03:42:10;;;;;;;10.47;9.53;;;;;;;;;;5096545;28;20915;-79
2022/09/26 03:44:36;;;;;;;10.73;9.73;;;;;;;;;;5096439;28;20389;-79
2022/09/26 03:47:02;;;;;;;10.60;9.50;;;;;;;;;;5095254;28;20789;-79
2022/09/26 03:49:28;;;;;;;11.63;9.63;;;;;;;;;;5096254;28;20410;-73
2022/09/26 03:51:54;;;;;;;9.47;8.57;;;;;;;;;;5096320;28;20437;-79
2022/09/26 03:54:20;;;;;;;10.90;9.47;;;;;;;;;;5096247;28;20896;-78
2022/09/26 03:56:46;;;;;;;11.10;10.10;;;;;;;;;;5096180;28;20473;-79
2022/09/26 03:59:12;;;;;;;12.60;9.23;;;;;;;;;;5096122;28;20545;-78
2022/09/26 04:01:38;;;;;;;12.60;10.73;;;;;;;;;;5096133;28;20889;-78
2022/09/26 04:04:04;;;;;;;11.70;10.60;;;;;;;;;;5096030;28;20413;-80
2022/09/26 04:06:30;;;;;;;14.23;12.77;;;;;;;;;;5096012;28;20542;-74
2022/09/26 04:08:56;;;;;;;17.80;11.70;;;;;;;;;;5096007;28;20408;-78
2022/09/26 04:11:23;;;;;;;9.53;8.60;;;;;;;;;;5094960;28;20417;-76
2022/09/26 04:13:49;;;;;;;9.57;8.53;;;;;;;;;;5093528;28;20461;-77
2022/09/26 04:16:16;;;;;;;9.57;8.60;;;;;;;;;;5096155;28;20458;-76
2022/09/26 04:18:42;;;;;;;8.03;6.57;;;;;;;;;;5095853;28;21044;-77
2022/09/26 04:21:09;;;;;;;7.90;7.20;;;;;;;;;;5095763;28;20409;-76
2022/09/26 04:23:36;;;;;;;5.93;5.37;;;;;;;;;;5095771;28;20412;-77
2022/09/26 04:26:05;;;;;;;5.60;5.17;;;;;;;;;;5094417;28;20433;-73
2022/09/26 04:28:32;;;;;;;4.10;3.70;;;;;;;;;;5095606;28;20413;-79
2022/09/26 04:30:58;;;;;;;5.83;4.10;;;;;;;;;;5094306;28;20803;-76
2022/09/26 04:33:24;;;;;;;14.03;12.70;;;;;;;;;;5094241;28;20432;-77
2022/09/26 04:35:50;;;;;;;7.80;5.63;;;;;;;;;;5095458;28;20406;-76
2022/09/26 04:38:17;;;;;;;8.33;4.77;;;;;;;;;;5095274;28;20472;-77
2022/09/26 04:40:43;;;;;;;5.00;4.63;;;;;;;;;;5095435;28;20405;-75
2022/09/26 04:43:10;;;;;;;5.57;4.10;;;;;;;;;;5095375;28;20405;-78
2022/09/26 04:45:35;;;;;;;6.87;3.77;;;;;;;;;;5095341;28;20554;-75
2022/09/26 04:48:02;;;;;;;4.10;3.77;;;;;;;;;;5095279;28;20438;-77
2022/09/26 04:50:28;;;;;;;4.47;4.07;;;;;;;;;;5093923;28;20421;-78
2022/09/26 04:52:54;;;;;;;3.97;3.70;;;;;;;;;;5093739;28;20436;-77
2022/09/26 04:55:20;;;;;;;4.37;4.07;;;;;;;;;;5093653;28;20850;-77
2022/09/26 04:57:48;;;;;;;4.03;3.63;;;;;;;;;;5095016;28;20472;-77
2022/09/26 05:00:14;;;;;;;5.23;4.73;;;;;;;;;;5095055;28;20397;-76
2022/09/26 05:02:41;;;;;;;6.10;5.40;;;;;;;;;;5093685;28;20425;-77
2022/09/26 05:05:08;;;;;;;7.87;5.97;;;;;;;;;;5094954;28;20494;-77
2022/09/26 05:07:38;;;;;;;6.30;5.80;;;;;;;;;;5095071;28;20397;-77
2022/09/26 05:10:04;;;;;;;6.70;6.10;;;;;;;;;;5094790;28;20441;-77
2022/09/26 05:12:31;;;;;;;5.90;5.50;;;;;;;;;;5093476;28;20503;-75
2022/09/26 05:14:58;;;;;;;5.33;5.07;;;;;;;;;;5094736;28;20829;-74
2022/09/26 05:17:25;;;;;;;6.30;5.70;;;;;;;;;;5094532;28;20823;-77
2022/09/26 05:19:51;;;;;;;5.53;5.20;;;;;;;;;;5094912;28;20401;-74
2022/09/26 05:22:17;;;;;;;5.82;5.22;;;;;;;;;;5094536;28;20428;-76
2022/09/26 05:27:28;;;;;;;8.07;6.50;;;;;;;;;;5094755;28;20938;-76
2022/09/26 05:29:55;;;;;;;6.10;5.80;;;;;;;;;;5094515;28;20469;-75
2022/09/26 05:32:21;;;;;;;6.13;5.80;;;;;;;;;;5094515;28;20940;-79
2022/09/26 05:34:47;;;;;;;6.17;5.77;;;;;;;;;;5093123;28;20504;-75
2022/09/26 05:37:14;;;;;;;6.97;6.47;;;;;;;;;;5094214;28;20461;-77
2022/09/26 05:42:24;;;;;;;17.20;12.60;;;;;;;;;;5094136;28;20416;-77
2022/09/26 05:44:50;;;;;;;18.93;15.30;;;;;;;;;;5094238;28;20412;-75
2022/09/26 05:47:16;;;;;;;20.83;14.60;;;;;;;;;;5094163;28;20401;-77
2022/09/26 05:49:42;;;;;;;18.93;13.57;;;;;;;;;;5094120;28;20401;-74
2022/09/26 05:52:08;;;;;;;13.07;11.40;;;;;;;;;;5094094;28;20937;-77
2022/09/26 05:54:34;;;;;;;15.13;11.77;;;;;;;;;;5093630;28;20468;-79
2022/09/26 05:57:00;;;;;;;12.77;10.73;;;;;;;;;;5093825;28;20423;-77
2022/09/26 05:59:26;;;;;;;14.57;12.10;;;;;;;;;;5094017;28;20888;-81
2022/09/26 06:01:53;;;;;;;13.47;11.73;;;;;;;;;;5092615;28;20449;-74
2022/09/26 06:04:19;;;;;;;12.53;11.30;;;;;;;;;;5093935;28;20412;-77
2022/09/26 06:06:47;;;;;;;9.07;8.23;;;;;;;;;;5093971;28;20408;-76
2022/09/26 06:09:16;;;;;;;10.27;8.90;;;;;;;;;;5093874;28;20398;-80
2022/09/26 06:11:42;;;;;;;10.67;9.57;;;;;;;;;;5093818;28;20786;-77
2022/09/26 06:14:08;;;;;;;9.63;8.63;;;;;;;;;;5093875;28;20406;-75
2022/09/26 06:16:34;;;;;;;9.03;8.10;;;;;;;;;;5092614;28;20436;-76
2022/09/26 06:19:01;;;;;;;9.17;8.17;;;;;;;;;;5092407;28;20838;-72
2022/09/26 06:21:27;;;;;;;10.43;7.73;;;;;;;;;;5093771;28;20896;-76
2022/09/26 06:23:53;;;;;;;6.83;6.23;;;;;;;;;;5093800;28;20402;-76
2022/09/26 06:26:20;;;;;;;8.30;6.90;;;;;;;;;;5093704;28;20444;-75
2022/09/26 06:28:48;;;;;;;8.70;7.73;;;;;;;;;;5093624;28;20402;-74
2022/09/26 06:31:16;;;;;;;8.73;7.57;;;;;;;;;;5093519;28;20462;-74
2022/09/26 06:33:42;;;;;;;8.60;8.00;;;;;;;;;;5093611;28;20951;-73
2022/09/26 06:36:09;;;;;;;7.93;7.33;;;;;;;;;;5093497;28;20397;-76
2022/09/26 06:38:36;;;;;;;8.43;7.63;;;;;;;;;;5097012;28;20979;-71
2022/09/26 06:41:02;;;;;;;8.80;7.60;;;;;;;;;;5097712;28;20423;-76
2022/09/26 06:43:28;;;;;;;7.70;7.10;;;;;;;;;;5097655;28;20419;-73
2022/09/26 06:45:54;;;;;;;9.53;7.13;;;;;;;;;;5097643;28;20768;-73
2022/09/26 06:48:24;;;;;;;7.70;7.00;;;;;;;;;;5096244;28;20417;-73
2022/09/26 06:50:51;;;;;;;7.40;6.90;;;;;;;;;;5097534;28;20408;-72
2022/09/26 06:53:17;;;;;;;9.60;7.70;;;;;;;;;;5097727;28;20413;-78
2022/09/26 06:55:43;;;;;;;8.03;7.43;;;;;;;;;;5097212;28;20800;-72
2022/09/26 06:58:09;;;;;;;8.07;7.47;;;;;;;;;;5097402;28;20468;-75
2022/09/26 07:00:35;;;;;;;9.33;8.40;;;;;;;;;;5097341;28;20401;-75
2022/09/26 07:03:01;;;;;;;13.57;8.47;;;;;;;;;;5097252;28;20961;-73
2022/09/26 07:05:27;;;;;;;8.70;7.90;;;;;;;;;;5095963;28;20504;-73
2022/09/26 07:07:54;;;;;;;9.40;8.50;;;;;;;;;;5097232;28;20891;-77
2022/09/26 07:10:20;;;;;;;9.53;8.57;;;;;;;;;;5097158;28;20766;-75
2022/09/26 07:12:46;;;;;;;10.87;9.77;;;;;;;;;;5097123;28;20421;-75
2022/09/26 07:15:14;;;;;;;9.17;8.40;;;;;;;;;;5095856;28;21028;-74
2022/09/26 07:17:41;;;;;;;10.63;8.90;;;;;;;;;;5096989;28;20457;-73
2022/09/26 07:20:09;;;;;;;10.40;9.40;;;;;;;;;;5096943;28;20503;-73
2022/09/26 07:22:35;;;;;;;10.43;9.43;;;;;;;;;;5095597;28;20815;-73
2022/09/26 07:25:01;;;;;;;10.93;9.23;;;;;;;;;;5096860;28;20447;-73
2022/09/26 07:27:27;;;;;;;8.97;8.00;;;;;;;;;;5095469;28;20460;-77
2022/09/26 07:29:53;;;;;;;10.90;8.00;;;;;;;;;;5096709;28;20417;-75
2022/09/26 07:32:19;;;;;;;8.77;8.17;;;;;;;;;;5097021;28;20416;-74
2022/09/26 07:34:45;;;;;;;11.20;9.20;;;;;;;;;;5095431;28;20431;-76
2022/09/26 07:37:11;;;;;;;8.93;8.23;;;;;;;;;;5096563;28;20409;-73
2022/09/26 07:39:37;;;;;;;9.33;8.47;;;;;;;;;;5096644;28;20463;-74
2022/09/26 07:42:03;;;;;;;8.83;8.13;;;;;;;;;;5096555;28;20414;-77
2022/09/26 07:44:29;;;;;;;9.80;8.90;;;;;;;;;;5095253;28;20425;-75
2022/09/26 07:52:26;;;;;;;11.30;8.07;;;;;;;;;;5096354;28;20493;-74
2022/09/26 07:54:52;;;;;;;8.50;7.70;;;;;;;;;;5096166;28;20482;-76
2022/09/26 07:57:18;;;;;;;9.87;8.80;;;;;;;;;;5096207;28;20453;-75
2022/09/26 07:59:44;;;;;;;10.80;9.13;;;;;;;;;;5096315;28;20409;-75
2022/09/26 08:02:24;;;;;;;12.93;8.80;;;;;;;;;;5094815;28;20908;-77
2022/09/26 08:04:52;;;;;;;11.33;8.87;;;;;;;;;;5096142;28;20899;-74
2022/09/26 08:07:18;;;;;;;9.70;8.97;;;;;;;;;;5094744;28;20449;-75
2022/09/26 08:09:44;;;;;;;8.97;8.17;;;;;;;;;;5095834;28;20421;-73
2022/09/26 08:12:10;;;;;;;16.63;9.70;;;;;;;;;;5095904;28;20470;-73
2022/09/26 08:14:36;;;;;;;10.63;9.83;;;;;;;;;;5095903;28;20491;-73
2022/09/26 08:17:03;;;;;;;10.83;9.80;;;;;;;;;;5095803;28;20410;-73
2022/09/26 08:19:29;;;;;;;14.67;10.37;;;;;;;;;;5096101;28;20462;-74
2022/09/26 08:21:55;;;;;;;11.63;10.13;;;;;;;;;;5095690;28;20406;-72
2022/09/26 08:24:21;;;;;;;13.30;10.33;;;;;;;;;;5095746;28;20406;-74
2022/09/26 08:26:47;;;;;;;14.30;9.90;;;;;;;;;;5095643;28;20434;-72
2022/09/26 08:29:13;;;;;;;10.50;9.60;;;;;;;;;;5095610;28;20409;-71
2022/09/26 08:31:39;;;;;;;10.37;9.47;;;;;;;;;;5095623;28;20401;-75
2022/09/26 08:34:05;;;;;;;11.77;9.00;;;;;;;;;;5095544;28;20402;-74
2022/09/26 08:36:32;;;;;;;9.40;8.50;;;;;;;;;;5095491;28;20456;-73
2022/09/26 08:38:58;;;;;;;20.13;9.47;;;;;;;;;;5095404;28;20962;-72
2022/09/26 08:41:37;;;;;;;9.10;8.30;;;;;;;;;;5095459;28;20420;-70
2022/09/26 08:44:06;;;;;;;9.37;8.30;;;;;;;;;;5094082;28;20430;-73
2022/09/26 08:47:01;;;;;;;17.83;7.67;;;;;;;;;;5095259;28;20409;-74
2022/09/26 08:49:41;;;;;;;7.50;6.90;;;;;;;;;;5095284;28;20451;-73
2022/09/26 08:52:26;;;;;;;12.30;7.17;;;;;;;;;;5095218;28;20846;-72
2022/09/26 08:54:54;;;;;;;7.37;6.73;;;;;;;;;;5093650;28;20470;-73
2022/09/26 08:57:38;;;;;;;7.17;6.53;;;;;;;;;;5095005;28;20447;-73
2022/09/26 09:00:17;;;;;;;7.90;6.40;;;;;;;;;;5094470;28;20399;-73
2022/09/26 09:02:46;;;;;;;7.10;6.50;;;;;;;;;;5094992;28;20399;-74
2022/09/26 09:05:19;;;;;;;10.17;6.30;;;;;;;;;;5094920;28;20915;-73
2022/09/26 09:07:48;;;;;;;6.50;5.90;;;;;;;;;;5093610;28;20468;-72
2022/09/26 09:10:16;;;;;;;6.10;5.80;;;;;;;;;;5094987;28;20419;-73
2022/09/26 09:13:01;;;;;;;8.20;6.10;;;;;;;;;;5094760;28;20760;-73
2022/09/26 09:15:39;;;;;;;6.40;5.80;;;;;;;;;;5094721;28;20414;-73
2022/09/26 09:18:14;;;;;;;6.93;5.80;;;;;;;;;;5094589;28;20465;-75
2022/09/26 09:20:49;;;;;;;6.13;5.80;;;;;;;;;;5094720;28;20468;-72
2022/09/26 09:23:33;;;;;;;5.20;4.80;;;;;;;;;;5094678;28;20419;-72
2022/09/26 09:26:24;;;;;;;6.50;6.00;;;;;;;;;;5093297;28;20456;-71
2022/09/26 09:28:56;;;;;;;7.23;5.83;;;;;;;;;;5094467;28;20778;-70
2022/09/26 09:31:23;;;;;;;7.00;6.40;;;;;;;;;;5094533;28;20540;-70
2022/09/26 09:33:51;;;;;;;5.57;5.17;;;;;;;;;;5094375;28;20408;-72
2022/09/26 09:36:17;;;;;;;8.63;6.73;;;;;;;;;;5094388;28;20453;-72
2022/09/26 09:38:45;;;;;;;6.97;5.70;;;;;;;;;;5094223;28;20511;-72
2022/09/26 09:41:15;;;;;;;6.00;5.50;;;;;;;;;;5094289;28;20997;-74
2022/09/26 09:43:53;;;;;;;8.20;6.33;;;;;;;;;;5092966;28;20915;-72
2022/09/26 09:46:22;;;;;;;6.63;6.17;;;;;;;;;;5094211;28;20507;-74
2022/09/26 09:48:48;;;;;;;6.50;6.00;;;;;;;;;;5094107;28;20486;-71
2022/09/26 09:51:18;;;;;;;6.40;6.00;;;;;;;;;;5092843;28;20523;-73
2022/09/26 09:53:56;;;;;;;6.10;5.60;;;;;;;;;;5092950;28;20425;-78
2022/09/26 09:56:22;;;;;;;7.80;5.97;;;;;;;;;;5093956;28;20513;-78
2022/09/26 09:58:54;;;;;;;5.50;5.20;;;;;;;;;;5092684;28;20466;-80
2022/09/26 10:01:24;;;;;;;5.70;5.30;;;;;;;;;;5092826;28;20518;-80
2022/09/26 10:04:05;;;;;;;6.10;5.60;;;;;;;;;;5093951;28;20768;-82
2022/09/26 10:06:31;;;;;;;7.40;5.80;;;;;;;;;;5093810;28;20932;-82
2022/09/26 10:08:59;;;;;;;5.47;4.97;;;;;;;;;;5093784;28;20899;-79
2022/09/26 10:11:25;;;;;;;5.30;5.00;;;;;;;;;;5093131;28;20411;-78
2022/09/26 10:13:55;;;;;;;4.87;4.77;;;;;;;;;;5093568;28;20469;-77
2022/09/26 10:16:22;;;;;;;5.27;4.97;;;;;;;;;;5093712;28;20398;-80
2022/09/26 10:18:53;;;;;;;4.77;4.27;;;;;;;;;;5093670;28;20466;-78
2022/09/26 10:21:19;;;;;;;5.63;3.63;;;;;;;;;;5093654;28;20404;-79
2022/09/26 10:23:47;;;;;;;3.70;3.40;;;;;;;;;;5093946;28;20407;-80
2022/09/26 10:26:14;;;;;;;4.43;3.90;;;;;;;;;;5093977;28;20407;-79
2022/09/26 10:28:47;;;;;;;3.97;3.60;;;;;;;;;;5093659;28;20428;-77
2022/09/26 10:31:29;;;;;;;3.90;3.57;;;;;;;;;;5093583;28;20398;-80
2022/09/26 10:33:58;;;;;;;5.83;2.77;;;;;;;;;;5093709;28;20891;-78
2022/09/26 10:36:29;;;;;;;2.83;2.73;;;;;;;;;;5093587;28;20428;-78
2022/09/26 10:41:45;;;;;;;3.50;2.50;;;;;;;;;;5093487;28;20410;-76
2022/09/26 10:44:25;;;;;;;2.20;2.10;;;;;;;;;;5093427;28;20403;-80
2022/09/26 10:46:54;;;;;;;2.27;2.17;;;;;;;;;;5092166;28;20411;-78
2022/09/26 10:49:22;;;;;;;3.07;2.30;;;;;;;;;;5093413;28;20399;-79
2022/09/26 10:51:54;;;;;;;3.43;2.47;;;;;;;;;;5093394;28;20403;-80
2022/09/26 10:54:25;;;;;;;2.23;2.10;;;;;;;;;;5093165;28;20406;-78
2022/09/26 10:56:58;;;;;;;2.97;2.00;;;;;;;;;;5093344;28;20415;-79
2022/09/26 10:59:25;;;;;;;3.93;2.50;;;;;;;;;;5091748;28;20514;-79
2022/09/26 11:01:55;;;;;;;4.53;2.10;;;;;;;;;;5093356;28;20406;-79
2022/09/26 11:07:26;;;;;;;3.43;2.70;;;;;;;;;;5093136;28;20402;-81
2022/09/26 11:09:57;;;;;;;2.70;2.50;;;;;;;;;;5093113;28;20456;-80
2022/09/26 11:12:34;;;;;;;3.03;2.40;;;;;;;;;;5093272;28;20416;-78
2022/09/26 11:15:11;;;;;;;2.43;2.30;;;;;;;;;;5091878;28;20426;-79
2022/09/26 11:17:43;;;;;;;6.07;2.30;;;;;;;;;;5091779;28;21047;-76
2022/09/26 11:20:13;;;;;;;2.40;2.20;;;;;;;;;;5093228;28;20395;-71
2022/09/26 11:22:47;;;;;;;2.23;2.13;;;;;;;;;;5091931;28;20410;-78
2022/09/26 11:25:23;;;;;;;3.87;2.10;;;;;;;;;;5096887;28;20394;-78
2022/09/26 11:27:52;;;;;;;3.00;2.37;;;;;;;;;;5096969;28;20394;-78
2022/09/26 11:30:19;;;;;;;7.00;1.87;;;;;;;;;;5096849;28;20437;-80
2022/09/26 11:32:50;;;;;;;7.60;2.53;;;;;;;;;;5096674;28;20888;-78
2022/09/26 11:35:19;;;;;;;1.90;1.80;;;;;;;;;;5096651;28;20404;-81
2022/09/26 11:37:48;;;;;;;2.27;2.17;;;;;;;;;;5096635;28;20591;-80
2022/09/26 11:40:23;;;;;;;3.70;2.40;;;;;;;;;;5095256;28;20415;-78
2022/09/26 11:42:54;;;;;;;2.10;2.00;;;;;;;;;;5096617;28;20883;-81
2022/09/26 11:45:23;;;;;;;4.33;2.47;;;;;;;;;;5096461;28;20410;-78
2022/09/26 11:47:49;;;;;;;5.30;2.17;;;;;;;;;;5096461;28;20407;-79
2022/09/26 11:50:38;;;;;;;2.30;2.03;;;;;;;;;;5096405;28;20414;-81
2022/09/26 11:53:20;;;;;;;4.40;2.70;;;;;;;;;;5096380;28;20946;-79
2022/09/26 11:55:57;;;;;;;2.53;2.40;;;;;;;;;;5096160;28;20892;-81
2022/09/26 11:58:38;;;;;;;4.37;2.27;;;;;;;;;;5094969;28;20470;-79
2022/09/26 12:01:15;;;;;;;2.57;2.37;;;;;;;;;;5096467;28;20456;-81
2022/09/26 12:03:59;;;;;;;3.83;2.80;;;;;;;;;;5096230;28;20756;-79
2022/09/26 12:06:32;;;;;;;2.57;2.37;;;;;;;;;;5094845;28;20510;-78
2022/09/26 12:09:17;;;;;;;2.63;2.50;;;;;;;;;;5096061;28;20391;-78
2022/09/26 12:11:52;;;;;;;2.77;2.20;;;;;;;;;;5095962;28;20411;-79
2022/09/26 12:14:24;;;;;;;5.30;2.90;;;;;;;;;;5095977;28;20890;-79
2022/09/26 12:16:53;;;;;;;4.17;2.83;;;;;;;;;;5095963;28;20411;-79
2022/09/26 12:19:33;;;;;;;2.77;2.57;;;;;;;;;;5094520;28;20483;-80
2022/09/26 12:24:56;;;;;;;6.00;2.63;;;;;;;;;;5095772;28;20400;-72
2022/09/26 12:27:24;;;;;;;3.60;2.57;;;;;;;;;;5095710;28;20487;-72
2022/09/26 12:29:50;;;;;;;3.33;2.80;;;;;;;;;;5095699;28;20508;-74
2022/09/26 12:32:16;;;;;;;2.83;2.50;;;;;;;;;;5094377;28;20415;-73
2022/09/26 12:34:53;;;;;;;4.63;2.60;;;;;;;;;;5094751;28;20469;-76
2022/09/26 12:37:33;;;;;;;10.63;3.40;;;;;;;;;;5095404;28;20416;-74
2022/09/26 12:40:05;;;;;;;2.93;2.67;;;;;;;;;;5095521;28;20929;-77
2022/09/26 12:42:40;;;;;;;6.53;2.50;;;;;;;;;;5094130;28;20482;-82
2022/09/26 12:45:09;;;;;;;3.90;2.30;;;;;;;;;;5094823;28;20600;-72
2022/09/26 12:47:45;;;;;;;2.47;2.47;;;;;;;;;;5094767;28;20429;-74
2022/09/26 12:50:43;;;;;;;2.23;2.03;;;;;;;;;;5095037;28;20419;-75
2022/09/26 12:53:23;;;;;;;1.93;1.83;;;;;;;;;;5061211;28;20425;-74
2022/09/26 12:55:48;;;;;;;3.37;2.33;;;;;;;;;;5094871;28;20568;-73
2022/09/26 12:58:23;;;;;;;2.10;2.00;;;;;;;;;;5094993;28;20555;-80
2022/09/26 13:01:03;;;;;;;4.63;2.47;;;;;;;;;;5094755;28;20428;-74
2022/09/26 13:03:48;;;;;;;4.60;2.07;;;;;;;;;;5094804;28;20393;-75
2022/09/26 13:06:32;;;;;;;1.83;1.73;;;;;;;;;;5094814;28;20411;-74
2022/09/26 13:09:12;;;;;;;5.20;2.43;;;;;;;;;;5094411;28;20413;-77
2022/09/26 13:11:55;;;;;;;2.33;1.97;;;;;;;;;;5094713;28;20424;-80
2022/09/26 13:14:30;;;;;;;8.90;2.30;;;;;;;;;;5094821;28;20454;-79
2022/09/26 13:17:08;;;;;;;1.83;1.73;;;;;;;;;;5094606;28;20397;-79
2022/09/26 13:19:40;;;;;;;2.47;2.37;;;;;;;;;;5094455;28;20468;-81
2022/09/26 13:22:15;;;;;;;2.20;2.10;;;;;;;;;;5094591;28;20398;-79
2022/09/26 13:24:50;;;;;;;2.70;2.60;;;;;;;;;;5094429;28;20446;-77
2022/09/26 13:27:19;;;;;;;8.17;2.17;;;;;;;;;;5094173;28;20907;-77
2022/09/26 13:29:49;;;;;;;4.77;1.90;;;;;;;;;;5094448;28;20405;-77
2022/09/26 13:32:21;;;;;;;2.10;1.90;;;;;;;;;;5092862;28;20426;-76
2022/09/26 13:34:51;;;;;;;2.50;2.33;;;;;;;;;;5094230;28;20465;-76
2022/09/26 13:37:26;;;;;;;3.80;2.23;;;;;;;;;;5092793;28;20785;-76
2022/09/26 13:39:56;;;;;;;5.40;2.43;;;;;;;;;;5094201;28;20417;-76
2022/09/26 13:42:32;;;;;;;2.27;2.10;;;;;;;;;;5092709;28;20426;-76
2022/09/26 13:45:21;;;;;;;2.30;2.23;;;;;;;;;;5094007;28;20443;-76
2022/09/26 13:47:53;;;;;;;3.63;2.37;;;;;;;;;;5065494;28;20428;-76
2022/09/26 13:50:40;;;;;;;2.50;2.40;;;;;;;;;;5094108;28;20415;-75
2022/09/26 13:53:11;;;;;;;2.20;2.00;;;;;;;;;;5093709;28;20399;-75
2022/09/26 13:55:37;;;;;;;2.57;2.37;;;;;;;;;;5092197;28;20558;-75
2022/09/26 13:58:19;;;;;;;2.57;2.37;;;;;;;;;;5092496;28;20565;-76
2022/09/26 14:00:52;;;;;;;2.73;2.43;;;;;;;;;;5093957;28;20408;-76
2022/09/26 14:03:18;;;;;;;7.27;2.80;;;;;;;;;;5092642;28;20447;-75
2022/09/26 14:05:45;;;;;;;9.03;2.97;;;;;;;;;;5093938;28;20395;-76
2022/09/26 14:11:07;;;;;;;18.70;13.97;;;;;;;;;;5093798;28;20408;-77
2022/09/26 14:13:35;;;;;;;3.40;3.30;;;;;;;;;;5092496;28;20785;-76
2022/09/26 14:16:02;;;;;;;3.17;2.50;;;;;;;;;;5092458;28;20803;-76
2022/09/26 14:18:33;;;;;;;4.70;4.50;;;;;;;;;;5093512;28;20465;-76
2022/09/26 14:21:00;;;;;;;5.43;4.93;;;;;;;;;;5093611;28;20402;-76
2022/09/26 14:23:37;;;;;;;5.07;4.77;;;;;;;;;;5093519;28;20895;-76
2022/09/26 14:26:05;;;;;;;5.73;4.20;;;;;;;;;;5092315;28;20512;-76
2022/09/26 14:28:32;;;;;;;3.70;3.50;;;;;;;;;;5093697;28;20411;-75
2022/09/26 14:31:15;;;;;;;2.70;2.50;;;;;;;;;;5092439;28;20414;-75
2022/09/26 14:33:43;;;;;;;6.50;5.90;;;;;;;;;;5092461;28;20818;-74
2022/09/26 14:36:26;;;;;;;6.63;3.90;;;;;;;;;;5093434;28;20922;-76
2022/09/26 14:38:53;;;;;;;6.00;4.90;;;;;;;;;;5093422;28;20467;-76
2022/09/26 14:41:20;;;;;;;8.90;5.10;;;;;;;;;;5093404;28;20439;-76
2022/09/26 14:43:48;;;;;;;5.70;5.20;;;;;;;;;;5093420;28;20412;-76
2022/09/26 14:46:19;;;;;;;9.13;5.57;;;;;;;;;;5093353;28;20415;-76
2022/09/26 14:48:45;;;;;;;4.43;4.03;;;;;;;;;;5092099;28;20430;-77
2022/09/26 14:51:15;;;;;;;7.53;4.70;;;;;;;;;;5092096;28;20415;-77
2022/09/26 14:53:50;;;;;;;8.93;6.10;;;;;;;;;;5093341;28;20408;-77
2022/09/26 14:56:28;;;;;;;6.57;5.80;;;;;;;;;;5093125;28;20988;-76
2022/09/26 14:59:13;;;;;;;6.10;3.50;;;;;;;;;;5095422;28;20458;-75
2022/09/26 15:01:39;;;;;;;3.80;3.50;;;;;;;;;;5097315;28;20808;-78
2022/09/26 15:04:18;;;;;;;8.23;2.30;;;;;;;;;;5097331;28;20910;-78
2022/09/26 15:06:51;;;;;;;2.90;2.70;;;;;;;;;;5097334;28;20945;-76
2022/09/26 15:09:19;;;;;;;1.90;1.80;;;;;;;;;;5097117;28;20769;-76
2022/09/26 15:11:48;;;;;;;3.03;2.27;;;;;;;;;;5095886;28;20408;-77
2022/09/26 15:14:24;;;;;;;2.17;1.90;;;;;;;;;;5097115;28;20963;-77
2022/09/26 15:16:53;;;;;;;2.53;1.40;;;;;;;;;;5097098;28;20399;-78
2022/09/26 15:19:27;;;;;;;2.73;2.03;;;;;;;;;;5096937;28;20507;-78
2022/09/26 15:21:58;;;;;;;4.77;2.07;;;;;;;;;;5096963;28;20399;-78